Time;durP1;ratioP1;P1;durP2;ratioP2;P2;SDS_P1;SDS_P2;PMS_P1;PMS_P2;Temp;Humidity;BMP_temperature;BMP_pressure;BME280_temperature;BME280_humidity;BME280_pressure;Samples;Min_cycle;Max_cycle;Signal;HPM_P1;HPM_P2
2022/04/06 00:01:45;;;;;;;;;;;11.00;99.90;;;;;;5103207;28;19975;-89
2022/04/06 00:04:11;;;;;;;;;;;11.00;99.90;;;;;;5101643;28;20147;-90
2022/04/06 00:06:36;;;;;;;;;;;10.90;99.90;;;;;;5102036;28;19904;-89
2022/04/06 00:09:02;;;;;;;;;;;11.00;99.90;;;;;;5103151;28;20218;-89
2022/04/06 00:11:28;;;;;;;;;;;11.00;99.90;;;;;;5101979;28;19939;-90
2022/04/06 00:13:54;;;;;;;;;;;11.00;99.90;;;;;;5101205;28;20096;-89
2022/04/06 00:16:19;;;;;;;;;;;11.00;99.90;;;;;;5102471;28;19942;-89
2022/04/06 00:18:45;;;;;;;;;;;11.00;99.90;;;;;;5100920;28;20077;-89
2022/04/06 00:21:11;;;;;;;;;;;11.10;99.90;;;;;;5102798;28;19951;-90
2022/04/06 00:23:37;;;;;;;;;;;11.10;99.90;;;;;;5102798;28;19911;-89
2022/04/06 00:26:02;;;;;;;;;;;11.10;99.90;;;;;;5102004;28;19904;-89
2022/04/06 00:28:28;;;;;;;;;;;11.00;99.90;;;;;;5102758;28;19979;-89
2022/04/06 00:30:53;;;;;;;;;;;11.00;99.90;;;;;;5101402;28;19940;-89
2022/04/06 00:33:19;;;;;;;;;;;10.90;99.90;;;;;;5102664;28;20216;-89
2022/04/06 00:35:44;;;;;;;;;;;10.90;99.90;;;;;;5102588;28;19982;-89
2022/04/06 00:38:10;;;;;;;;;;;10.90;99.90;;;;;;5102651;28;19916;-89
2022/04/06 00:40:36;;;;;;;;;;;10.90;99.90;;;;;;5102205;28;19928;-89
2022/04/06 00:43:12;;;;;;;;;;;10.90;99.90;;;;;;5101365;28;19911;-89
2022/04/06 00:45:41;;;;;;;;;;;11.00;99.90;;;;;;5102393;28;19971;-89
2022/04/06 00:48:07;;;;;;;;;;;10.90;99.90;;;;;;5101318;28;19935;-90
2022/04/06 00:50:34;;;;;;;;;;;10.90;99.90;;;;;;5102557;28;19908;-89
2022/04/06 00:53:00;;;;;;;;;;;10.90;99.90;;;;;;5102410;28;19908;-89
2022/04/06 00:55:27;;;;;;;;;;;10.90;99.90;;;;;;5102553;28;19927;-90
2022/04/06 00:57:52;;;;;;;;;;;10.90;99.90;;;;;;5102180;28;19904;-89
2022/04/06 01:00:18;;;;;;;;;;;10.90;99.90;;;;;;5101178;28;19980;-89
2022/04/06 01:02:43;;;;;;;;;;;10.90;99.90;;;;;;5101893;28;19908;-89
2022/04/06 01:05:09;;;;;;;;;;;10.90;99.90;;;;;;5100246;28;19979;-89
2022/04/06 01:07:35;;;;;;;;;;;10.80;99.90;;;;;;5101990;28;20141;-89
2022/04/06 01:10:00;;;;;;;;;;;10.90;99.90;;;;;;5100611;28;19962;-89
2022/04/06 01:12:28;;;;;;;;;;;10.90;99.90;;;;;;5101638;28;20207;-89
2022/04/06 01:14:56;;;;;;;;;;;11.00;99.90;;;;;;5102096;28;19903;-89
2022/04/06 01:17:21;;;;;;;;;;;11.00;99.90;;;;;;5100867;28;19911;-89
2022/04/06 01:19:52;;;;;;;;;;;11.00;99.90;;;;;;5100526;28;20082;-89
2022/04/06 01:22:18;;;;;;;;;;;11.00;99.90;;;;;;5100841;28;19971;-89
2022/04/06 01:24:45;;;;;;;;;;;11.00;99.90;;;;;;5097918;28;20134;-89
2022/04/06 01:27:11;;;;;;;;;;;11.00;99.90;;;;;;5097425;28;20199;-89
2022/04/06 01:29:36;;;;;;;;;;;11.10;99.90;;;;;;5096877;28;19924;-89
2022/04/06 01:32:12;;;;;;;;;;;11.10;99.90;;;;;;5098945;28;19911;-89
2022/04/06 01:34:39;;;;;;;;;;;11.10;99.90;;;;;;5096082;28;20151;-89
2022/04/06 01:37:04;;;;;;;;;;;11.00;99.90;;;;;;5102087;28;19946;-89
2022/04/06 01:39:31;;;;;;;;;;;11.00;99.90;;;;;;5096840;28;19912;-89
2022/04/06 01:41:57;;;;;;;;;;;11.00;99.90;;;;;;5100862;28;20184;-89
2022/04/06 01:44:22;;;;;;;;;;;11.00;99.90;;;;;;5098995;28;19919;-89
2022/04/06 01:46:48;;;;;;;;;;;10.90;99.90;;;;;;5099935;28;19904;-88
2022/04/06 01:52:13;;;;;;;;;;;10.90;99.90;;;;;;5098604;28;20190;-89
2022/04/06 01:54:50;;;;;;;;;;;11.00;99.90;;;;;;5096125;28;19919;-89
2022/04/06 01:57:16;;;;;;;;;;;10.90;99.90;;;;;;5096871;28;19999;-89
2022/04/06 01:59:42;;;;;;;;;;;11.00;99.90;;;;;;5098946;28;19915;-89
2022/04/06 02:02:07;;;;;;;;;;;10.90;99.90;;;;;;5099910;28;19904;-88
2022/04/06 02:04:33;;;;;;;;;;;10.90;99.90;;;;;;5093272;28;19908;-89
2022/04/06 02:06:58;;;;;;;;;;;11.00;99.90;;;;;;5099689;28;19910;-89
2022/04/06 02:09:24;;;;;;;;;;;11.00;99.90;;;;;;5100276;28;19979;-89
2022/04/06 02:11:50;;;;;;;;;;;10.90;99.90;;;;;;5101824;28;19911;-89
2022/04/06 02:14:16;;;;;;;;;;;11.00;99.90;;;;;;5102485;28;19950;-88
2022/04/06 02:16:42;;;;;;;;;;;11.00;99.90;;;;;;5103047;28;19904;-89
2022/04/06 02:19:08;;;;;;;;;;;11.10;99.90;;;;;;5099854;28;19912;-89
2022/04/06 02:21:34;;;;;;;;;;;11.00;99.90;;;;;;5101378;28;20203;-89
2022/04/06 02:24:00;;;;;;;;;;;11.10;99.90;;;;;;5102337;28;19912;-89
2022/04/06 02:26:27;;;;;;;;;;;11.10;99.90;;;;;;5104941;28;19923;-89
2022/04/06 02:28:53;;;;;;;;;;;11.10;99.90;;;;;;5104812;28;20208;-89
2022/04/06 02:31:18;;;;;;;;;;;11.10;99.90;;;;;;5104426;28;19904;-89
2022/04/06 02:33:44;;;;;;;;;;;11.10;99.90;;;;;;5104916;28;20196;-89
2022/04/06 02:36:09;;;;;;;;;;;11.10;99.90;;;;;;5104581;28;19904;-89
2022/04/06 02:38:38;;;;;;;;;;;11.10;99.90;;;;;;5103720;28;19911;-89
2022/04/06 02:41:08;;;;;;;;;;;11.10;99.90;;;;;;5103558;28;19912;-89
2022/04/06 02:43:34;;;;;;;;;;;11.20;99.90;;;;;;5103432;28;19904;-89
2022/04/06 02:46:00;;;;;;;;;;;11.10;99.90;;;;;;5103302;28;20006;-88
2022/04/06 02:48:25;;;;;;;;;;;11.10;99.90;;;;;;5104176;28;19941;-89
2022/04/06 02:50:51;;;;;;;;;;;11.20;99.90;;;;;;5103942;28;19904;-89
2022/04/06 02:53:17;;;;;;;;;;;11.20;99.90;;;;;;5102141;28;20419;-89
2022/04/06 02:55:42;;;;;;;;;;;11.10;99.90;;;;;;5103601;28;20127;-88
2022/04/06 02:58:08;;;;;;;;;;;11.10;99.90;;;;;;5103212;28;19942;-88
2022/04/06 03:00:33;;;;;;;;;;;11.10;99.90;;;;;;5103854;28;19922;-89
2022/04/06 03:02:59;;;;;;;;;;;11.10;99.90;;;;;;5102463;28;19904;-89
2022/04/06 03:05:27;;;;;;;;;;;11.20;99.90;;;;;;5101829;28;19904;-88
2022/04/06 03:07:53;;;;;;;;;;;11.20;99.90;;;;;;5103194;28;19911;-89
2022/04/06 03:10:18;;;;;;;;;;;11.10;99.90;;;;;;5104252;28;19935;-88
2022/04/06 03:12:45;;;;;;;;;;;11.10;99.90;;;;;;5103022;28;20256;-89
2022/04/06 03:15:10;;;;;;;;;;;11.00;99.90;;;;;;5102899;28;19926;-89
2022/04/06 03:17:36;;;;;;;;;;;11.10;99.90;;;;;;5103911;28;19904;-89
2022/04/06 03:20:03;;;;;;;;;;;11.10;99.90;;;;;;5100999;28;19912;-89
2022/04/06 03:22:29;;;;;;;;;;;11.20;99.90;;;;;;5102687;28;20271;-89
2022/04/06 03:24:54;;;;;;;;;;;11.20;99.90;;;;;;5102594;28;19908;-89
2022/04/06 03:27:20;;;;;;;;;;;11.10;99.90;;;;;;5100255;28;19935;-89
2022/04/06 03:29:45;;;;;;;;;;;11.20;99.90;;;;;;5102674;28;19911;-89
2022/04/06 03:32:11;;;;;;;;;;;11.20;99.90;;;;;;5102570;28;19904;-89
2022/04/06 03:34:37;;;;;;;;;;;11.20;99.90;;;;;;5102589;28;20091;-90
2022/04/06 03:37:03;;;;;;;;;;;11.20;99.90;;;;;;5102220;28;19904;-90
2022/04/06 03:39:29;;;;;;;;;;;11.10;99.90;;;;;;5101358;28;19912;-89
2022/04/06 03:41:54;;;;;;;;;;;11.10;99.90;;;;;;5104299;28;20241;-89
2022/04/06 03:44:20;;;;;;;;;;;11.10;99.90;;;;;;5102000;28;19911;-89
2022/04/06 03:46:45;;;;;;;;;;;11.20;99.90;;;;;;5102984;28;20080;-89
2022/04/06 03:49:11;;;;;;;;;;;11.10;99.90;;;;;;5103434;28;19911;-89
2022/04/06 03:51:36;;;;;;;;;;;11.10;99.90;;;;;;5101369;28;19904;-89
2022/04/06 03:54:03;;;;;;;;;;;11.10;99.90;;;;;;5101683;28;19920;-88
2022/04/06 03:56:28;;;;;;;;;;;11.10;99.90;;;;;;5103379;28;19904;-88
2022/04/06 03:58:54;;;;;;;;;;;11.10;99.90;;;;;;5099018;28;19916;-89
2022/04/06 04:01:19;;;;;;;;;;;11.10;99.90;;;;;;5102524;28;19946;-89
2022/04/06 04:03:45;;;;;;;;;;;11.00;99.90;;;;;;5102630;28;20230;-89
2022/04/06 04:06:10;;;;;;;;;;;11.00;99.90;;;;;;5102790;28;19904;-88
2022/04/06 04:08:37;;;;;;;;;;;11.00;99.90;;;;;;5102994;28;19916;-89
2022/04/06 04:11:02;;;;;;;;;;;11.00;99.90;;;;;;5101215;28;20024;-89
2022/04/06 04:13:28;;;;;;;;;;;11.00;99.90;;;;;;5099906;28;20101;-88
2022/04/06 04:15:53;;;;;;;;;;;11.00;99.90;;;;;;5102731;28;20235;-89
2022/04/06 04:18:19;;;;;;;;;;;11.10;99.90;;;;;;5102514;28;19904;-89
2022/04/06 04:20:45;;;;;;;;;;;11.10;99.90;;;;;;5100808;28;20192;-89
2022/04/06 04:23:14;;;;;;;;;;;11.10;99.90;;;;;;5102671;28;19942;-89
2022/04/06 04:25:40;;;;;;;;;;;11.10;99.90;;;;;;5101314;28;19904;-89
2022/04/06 04:28:05;;;;;;;;;;;11.10;99.90;;;;;;5102455;28;19911;-89
2022/04/06 04:30:31;;;;;;;;;;;11.10;99.90;;;;;;5101709;28;20103;-88
2022/04/06 04:32:57;;;;;;;;;;;11.10;99.90;;;;;;5100663;28;19904;-89
2022/04/06 04:35:22;;;;;;;;;;;11.10;99.90;;;;;;5100412;28;20134;-88
2022/04/06 04:37:48;;;;;;;;;;;11.10;99.90;;;;;;5101344;28;19915;-89
2022/04/06 04:40:16;;;;;;;;;;;11.10;99.90;;;;;;5099169;28;19912;-89
2022/04/06 04:42:42;;;;;;;;;;;11.10;99.90;;;;;;5100868;28;19926;-91
2022/04/06 04:45:08;;;;;;;;;;;11.10;99.90;;;;;;5098207;28;19908;-88
2022/04/06 04:47:34;;;;;;;;;;;11.10;99.90;;;;;;5099806;28;20198;-89
2022/04/06 04:50:00;;;;;;;;;;;11.10;99.90;;;;;;5101132;28;19904;-89
2022/04/06 04:52:26;;;;;;;;;;;11.10;99.90;;;;;;5102218;28;20200;-89
2022/04/06 04:54:52;;;;;;;;;;;11.00;99.90;;;;;;5101499;28;19908;-89
2022/04/06 04:57:18;;;;;;;;;;;11.00;99.90;;;;;;5101192;28;19904;-89
2022/04/06 04:59:43;;;;;;;;;;;11.00;99.90;;;;;;5100579;28;19926;-89
2022/04/06 05:02:09;;;;;;;;;;;11.10;99.90;;;;;;5098872;28;19916;-89
2022/04/06 05:04:34;;;;;;;;;;;11.00;99.90;;;;;;5101930;28;19911;-89
2022/04/06 05:07:00;;;;;;;;;;;11.00;99.90;;;;;;5098214;28;19912;-89
2022/04/06 05:09:28;;;;;;;;;;;11.10;99.90;;;;;;5101599;28;19988;-90
2022/04/06 05:11:54;;;;;;;;;;;11.00;99.90;;;;;;5101009;28;19975;-89
2022/04/06 05:14:19;;;;;;;;;;;11.00;99.90;;;;;;5090615;28;20355;-89
2022/04/06 05:16:45;;;;;;;;;;;11.10;99.90;;;;;;5077227;28;20277;-89
2022/04/06 05:19:10;;;;;;;;;;;11.00;99.90;;;;;;5084660;28;19924;-89
2022/04/06 05:21:36;;;;;;;;;;;11.00;99.90;;;;;;5070700;28;19908;-89
2022/04/06 05:24:04;;;;;;;;;;;11.00;99.90;;;;;;5114325;28;19912;-89
2022/04/06 05:26:30;;;;;;;;;;;11.00;99.90;;;;;;5077690;28;20284;-89
2022/04/06 05:28:56;;;;;;;;;;;11.00;99.90;;;;;;5081105;28;19912;-89
2022/04/06 05:31:22;;;;;;;;;;;11.00;99.90;;;;;;5083482;28;20446;-89
2022/04/06 05:33:47;;;;;;;;;;;10.90;99.90;;;;;;5089271;28;19908;-89
2022/04/06 05:36:14;;;;;;;;;;;11.00;99.90;;;;;;5081611;28;19913;-86
2022/04/06 05:38:40;;;;;;;;;;;11.10;99.90;;;;;;5070849;28;19927;-87
2022/04/06 05:41:05;;;;;;;;;;;11.00;99.90;;;;;;5068461;28;20291;-87
2022/04/06 05:43:31;;;;;;;;;;;11.10;99.90;;;;;;5073922;28;20354;-87
2022/04/06 05:45:56;;;;;;;;;;;11.10;99.90;;;;;;5072601;28;20265;-88
2022/04/06 05:48:22;;;;;;;;;;;11.00;99.90;;;;;;5073999;28;19916;-86
2022/04/06 05:50:47;;;;;;;;;;;11.00;99.90;;;;;;5072317;28;20288;-87
2022/04/06 05:53:13;;;;;;;;;;;11.00;99.90;;;;;;5072900;28;19915;-87
2022/04/06 05:55:39;;;;;;;;;;;11.00;99.90;;;;;;5072536;28;19915;-87
2022/04/06 05:58:05;;;;;;;;;;;11.00;99.90;;;;;;5072626;28;19999;-87
2022/04/06 06:00:30;;;;;;;;;;;11.00;99.90;;;;;;5072057;28;19963;-87
2022/04/06 06:02:56;;;;;;;;;;;11.00;99.90;;;;;;5073645;28;19913;-87
2022/04/06 06:05:21;;;;;;;;;;;11.00;99.90;;;;;;5072262;28;20261;-87
2022/04/06 06:07:47;;;;;;;;;;;11.10;99.90;;;;;;5073724;28;20415;-87
2022/04/06 06:10:12;;;;;;;;;;;10.90;99.90;;;;;;5072594;28;19912;-87
2022/04/06 06:12:38;;;;;;;;;;;10.90;99.90;;;;;;5072504;28;19939;-87
2022/04/06 06:15:06;;;;;;;;;;;11.00;99.90;;;;;;5071973;28;19932;-87
2022/04/06 06:17:35;;;;;;;;;;;11.00;99.90;;;;;;5072119;28;20973;-87
2022/04/06 06:20:01;;;;;;;;;;;11.00;99.90;;;;;;5072162;28;20019;-87
2022/04/06 06:22:26;;;;;;;;;;;11.00;99.90;;;;;;5071790;28;20013;-87
2022/04/06 06:24:52;;;;;;;;;;;11.00;99.90;;;;;;5072339;28;19975;-87
2022/04/06 06:27:19;;;;;;;;;;;11.10;99.90;;;;;;5072119;28;19959;-87
2022/04/06 06:29:46;;;;;;;;;;;11.10;99.90;;;;;;5071976;28;19916;-87
2022/04/06 06:32:11;;;;;;;;;;;11.10;99.90;;;;;;5076860;28;19936;-87
2022/04/06 06:34:37;;;;;;;;;;;11.10;99.90;;;;;;5076429;28;19912;-87
2022/04/06 06:37:02;;;;;;;;;;;11.10;99.90;;;;;;5077988;28;19912;-86
2022/04/06 06:39:28;;;;;;;;;;;11.10;99.90;;;;;;5071869;28;19912;-87
2022/04/06 06:41:54;;;;;;;;;;;11.20;99.90;;;;;;5073251;28;20395;-87
2022/04/06 06:44:20;;;;;;;;;;;11.10;99.90;;;;;;5073617;28;19995;-87
2022/04/06 06:46:47;;;;;;;;;;;11.20;99.90;;;;;;5073032;28;20330;-87
2022/04/06 06:49:14;;;;;;;;;;;11.20;99.90;;;;;;5073210;28;19908;-87
2022/04/06 06:51:40;;;;;;;;;;;11.20;99.90;;;;;;5071745;28;19986;-87
2022/04/06 06:54:06;;;;;;;;;;;11.30;99.90;;;;;;5072694;28;20536;-87
2022/04/06 06:56:31;;;;;;;;;;;11.30;99.90;;;;;;5072956;28;19999;-87
2022/04/06 06:58:57;;;;;;;;;;;11.30;99.90;;;;;;5071121;28;20002;-87
2022/04/06 07:01:23;;;;;;;;;;;11.30;99.90;;;;;;5071309;28;20364;-87
2022/04/06 07:03:48;;;;;;;;;;;11.30;99.90;;;;;;5072899;28;20376;-87
2022/04/06 07:06:14;;;;;;;;;;;11.40;99.90;;;;;;5072890;28;19909;-87
2022/04/06 07:08:40;;;;;;;;;;;11.40;99.90;;;;;;5071534;28;19908;-86
2022/04/06 07:11:05;;;;;;;;;;;11.40;99.90;;;;;;5071306;28;19913;-87
2022/04/06 07:13:31;;;;;;;;;;;11.40;99.90;;;;;;5073232;28;19916;-87
2022/04/06 07:15:57;;;;;;;;;;;11.40;99.90;;;;;;5072451;28;19995;-87
2022/04/06 07:18:23;;;;;;;;;;;11.40;99.90;;;;;;5071049;28;20364;-87
2022/04/06 07:20:49;;;;;;;;;;;11.50;99.90;;;;;;5072539;28;19978;-86
2022/04/06 07:23:14;;;;;;;;;;;11.50;99.90;;;;;;5072437;28;20384;-87
2022/04/06 07:25:40;;;;;;;;;;;11.60;99.90;;;;;;5072455;28;19970;-87
2022/04/06 07:28:06;;;;;;;;;;;11.60;99.90;;;;;;5072364;28;19915;-87
2022/04/06 07:30:32;;;;;;;;;;;11.70;99.90;;;;;;5070628;28;19923;-87
2022/04/06 07:32:58;;;;;;;;;;;11.70;99.90;;;;;;5072311;28;20002;-87
2022/04/06 07:35:24;;;;;;;;;;;11.70;99.90;;;;;;5071083;28;19908;-86
2022/04/06 07:37:50;;;;;;;;;;;11.70;99.90;;;;;;5070923;28;19962;-87
2022/04/06 07:40:17;;;;;;;;;;;11.80;99.90;;;;;;5070524;28;20373;-87
2022/04/06 07:42:42;;;;;;;;;;;11.90;99.90;;;;;;5071729;28;19908;-87
2022/04/06 07:45:16;;;;;;;;;;;11.90;99.90;;;;;;5072056;28;19919;-87
2022/04/06 07:47:43;;;;;;;;;;;11.90;99.90;;;;;;5070450;28;19944;-87
2022/04/06 07:50:09;;;;;;;;;;;11.90;99.90;;;;;;5070677;28;20643;-87
2022/04/06 07:52:36;;;;;;;;;;;12.00;99.90;;;;;;5071977;28;19915;-87
2022/04/06 07:55:04;;;;;;;;;;;12.00;99.90;;;;;;5070488;28;19915;-87
2022/04/06 07:57:30;;;;;;;;;;;12.20;99.90;;;;;;5070597;28;19915;-87
2022/04/06 07:59:56;;;;;;;;;;;12.20;99.90;;;;;;5069766;28;19921;-87
2022/04/06 08:02:21;;;;;;;;;;;12.20;99.90;;;;;;5071667;28;19999;-87
2022/04/06 08:04:47;;;;;;;;;;;12.20;99.90;;;;;;5070804;28;19915;-87
2022/04/06 08:07:12;;;;;;;;;;;12.20;99.90;;;;;;5070490;28;20000;-87
2022/04/06 08:09:38;;;;;;;;;;;12.30;99.90;;;;;;5071499;28;20396;-87
2022/04/06 08:12:04;;;;;;;;;;;12.30;99.90;;;;;;5071851;28;20283;-87
2022/04/06 08:14:29;;;;;;;;;;;12.30;99.90;;;;;;5071686;28;20376;-87
2022/04/06 08:16:55;;;;;;;;;;;12.30;99.90;;;;;;5071241;28;19912;-87
2022/04/06 08:19:22;;;;;;;;;;;12.10;99.90;;;;;;5069918;28;19920;-87
2022/04/06 08:21:48;;;;;;;;;;;12.10;99.90;;;;;;5069948;28;19995;-87
2022/04/06 08:24:14;;;;;;;;;;;12.10;99.90;;;;;;5069830;28;20411;-87
2022/04/06 08:26:39;;;;;;;;;;;12.10;99.90;;;;;;5071212;28;20376;-87
2022/04/06 08:29:05;;;;;;;;;;;12.00;99.90;;;;;;5069971;28;20025;-87
2022/04/06 08:31:30;;;;;;;;;;;12.10;99.90;;;;;;5069674;28;19944;-87
2022/04/06 08:33:56;;;;;;;;;;;12.20;99.90;;;;;;5069818;28;19920;-87
2022/04/06 08:36:21;;;;;;;;;;;12.20;99.90;;;;;;5071302;28;19909;-87
2022/04/06 08:38:47;;;;;;;;;;;12.30;99.90;;;;;;5071107;28;19909;-87
2022/04/06 08:41:13;;;;;;;;;;;12.40;99.90;;;;;;5071039;28;20323;-87
2022/04/06 08:43:38;;;;;;;;;;;12.40;99.90;;;;;;5070950;28;20262;-88
2022/04/06 08:46:04;;;;;;;;;;;12.30;99.90;;;;;;5069481;28;19909;-87
2022/04/06 08:48:30;;;;;;;;;;;12.30;99.90;;;;;;5069624;28;19914;-87
2022/04/06 08:50:58;;;;;;;;;;;12.40;99.90;;;;;;5069776;28;19909;-88
2022/04/06 08:53:23;;;;;;;;;;;12.40;99.90;;;;;;5069716;28;19991;-88
2022/04/06 08:55:49;;;;;;;;;;;12.40;99.90;;;;;;5069657;28;20340;-87
2022/04/06 08:58:15;;;;;;;;;;;12.50;99.90;;;;;;5069489;28;19914;-87
2022/04/06 09:00:40;;;;;;;;;;;12.50;99.90;;;;;;5070802;28;19938;-87
2022/04/06 09:03:06;;;;;;;;;;;12.60;99.90;;;;;;5069529;28;19955;-87
2022/04/06 09:05:32;;;;;;;;;;;12.60;99.90;;;;;;5069333;28;19908;-87
2022/04/06 09:07:59;;;;;;;;;;;12.50;99.90;;;;;;5069480;28;19909;-87
2022/04/06 09:10:32;;;;;;;;;;;12.40;99.90;;;;;;5069668;28;19970;-87
2022/04/06 09:13:20;;;;;;;;;;;12.20;99.90;;;;;;5069549;28;19909;-87
2022/04/06 09:15:46;;;;;;;;;;;12.10;99.90;;;;;;5071942;28;19908;-87
2022/04/06 09:18:12;;;;;;;;;;;12.10;99.90;;;;;;5073497;28;19952;-87
2022/04/06 09:20:38;;;;;;;;;;;12.20;99.90;;;;;;5074711;28;20351;-87
2022/04/06 09:23:05;;;;;;;;;;;12.40;99.90;;;;;;5074679;28;19908;-87
2022/04/06 09:25:34;;;;;;;;;;;12.50;99.90;;;;;;5074542;28;19913;-87
2022/04/06 09:28:09;;;;;;;;;;;12.50;99.90;;;;;;5074691;28;20381;-88
2022/04/06 09:30:38;;;;;;;;;;;12.50;99.90;;;;;;5076229;28;19912;-87
2022/04/06 09:33:03;;;;;;;;;;;12.50;99.90;;;;;;5074579;28;19908;-86
2022/04/06 09:35:32;;;;;;;;;;;12.60;99.90;;;;;;5074666;28;19909;-87
2022/04/06 09:38:16;;;;;;;;;;;12.50;99.90;;;;;;5073198;28;19916;-87
2022/04/06 09:40:42;;;;;;;;;;;12.50;99.90;;;;;;5074363;28;19916;-87
2022/04/06 09:43:09;;;;;;;;;;;12.40;99.90;;;;;;5072895;28;19947;-87
2022/04/06 09:48:19;;;;;;;;;;;12.50;99.90;;;;;;5074535;28;20273;-87
2022/04/06 09:50:55;;;;;;;;;;;12.50;99.90;;;;;;5074352;28;19909;-87
2022/04/06 09:53:24;;;;;;;;;;;12.50;99.90;;;;;;5074282;28;19961;-87
2022/04/06 09:55:52;;;;;;;;;;;12.30;99.90;;;;;;5074054;28;19908;-86
2022/04/06 09:58:17;;;;;;;;;;;12.30;99.90;;;;;;5073977;28;19915;-86
2022/04/06 10:00:43;;;;;;;;;;;12.30;99.90;;;;;;5073920;28;19917;-87
2022/04/06 10:03:10;;;;;;;;;;;12.20;99.90;;;;;;5073969;28;20042;-87
2022/04/06 10:05:37;;;;;;;;;;;12.20;99.90;;;;;;5074080;28;20498;-87
2022/04/06 10:08:04;;;;;;;;;;;12.20;99.90;;;;;;5073874;28;20269;-87
2022/04/06 10:10:33;;;;;;;;;;;12.20;99.90;;;;;;5072339;28;20292;-87
2022/04/06 10:13:01;;;;;;;;;;;12.30;99.90;;;;;;5073832;28;19908;-87
2022/04/06 10:15:27;;;;;;;;;;;12.30;99.90;;;;;;5072295;28;19991;-87
2022/04/06 10:17:53;;;;;;;;;;;12.50;99.90;;;;;;5073712;28;19975;-87
2022/04/06 10:20:24;;;;;;;;;;;12.60;99.90;;;;;;5072197;28;19970;-86
2022/04/06 10:22:58;;;;;;;;;;;12.50;99.90;;;;;;5072269;28;20438;-87
2022/04/06 10:25:27;;;;;;;;;;;12.60;99.90;;;;;;5072043;28;19913;-87
2022/04/06 10:27:55;;;;;;;;;;;12.70;99.90;;;;;;5073264;28;20139;-87
2022/04/06 10:30:26;;;;;;;;;;;12.70;99.90;;;;;;5073307;28;20388;-87
2022/04/06 10:32:52;;;;;;;;;;;12.60;99.90;;;;;;5072286;28;19908;-87
2022/04/06 10:35:21;;;;;;;;;;;12.70;99.90;;;;;;5088714;28;19961;-87
2022/04/06 10:38:07;;;;;;;;;;;12.80;99.90;;;;;;5093733;28;19908;-87
2022/04/06 10:40:42;;;;;;;;;;;13.10;99.90;;;;;;5084335;28;19950;-87
2022/04/06 10:43:27;;;;;;;;;;;13.20;99.90;;;;;;5093720;28;20107;-87
2022/04/06 10:45:53;;;;;;;;;;;13.50;99.90;;;;;;5091699;28;19912;-86
2022/04/06 10:48:18;;;;;;;;;;;13.50;99.90;;;;;;5091810;28;20257;-87
2022/04/06 10:50:48;;;;;;;;;;;13.50;99.90;;;;;;5093608;28;20265;-92
2022/04/06 10:53:19;;;;;;;;;;;13.30;99.90;;;;;;5093361;28;20368;-88
2022/04/06 10:56:06;;;;;;;;;;;13.40;99.90;;;;;;5092080;28;20416;-90
2022/04/06 10:58:50;;;;;;;;;;;13.10;99.90;;;;;;5091753;28;19995;-90
2022/04/06 11:01:16;;;;;;;;;;;13.00;99.90;;;;;;5093367;28;19923;-90
2022/04/06 11:03:45;;;;;;;;;;;13.10;99.90;;;;;;5091921;28;19969;-90
2022/04/06 11:06:10;;;;;;;;;;;13.20;99.90;;;;;;5125852;27;19955;-89
2022/04/06 11:11:37;;;;;;;;;;;12.80;99.90;;;;;;5093383;28;19966;-90
2022/04/06 11:14:04;;;;;;;;;;;13.00;99.90;;;;;;5091958;28;20288;-89
2022/04/06 11:16:43;;;;;;;;;;;13.00;99.90;;;;;;5091370;28;19916;-90
2022/04/06 11:19:08;;;;;;;;;;;13.20;99.90;;;;;;5092822;28;19915;-90
2022/04/06 11:21:34;;;;;;;;;;;13.40;99.90;;;;;;5092849;28;19912;-90
2022/04/06 11:24:00;;;;;;;;;;;13.50;99.90;;;;;;5091305;28;19930;-90
2022/04/06 11:26:26;;;;;;;;;;;13.90;99.90;;;;;;5091382;28;19914;-90
2022/04/06 11:28:58;;;;;;;;;;;14.00;99.90;;;;;;5092811;28;19966;-90
2022/04/06 11:31:24;;;;;;;;;;;14.20;99.90;;;;;;5092534;28;20437;-90
2022/04/06 11:33:50;;;;;;;;;;;14.40;99.90;;;;;;5091689;28;19908;-90
2022/04/06 11:36:16;;;;;;;;;;;14.60;99.90;;;;;;5092795;28;19915;-90
2022/04/06 11:38:42;;;;;;;;;;;14.60;99.90;;;;;;5091816;28;19908;-89
2022/04/06 11:41:08;;;;;;;;;;;14.70;99.90;;;;;;5091913;28;20323;-89
2022/04/06 11:43:39;;;;;;;;;;;14.60;99.90;;;;;;5090969;28;19947;-89
2022/04/06 11:46:04;;;;;;;;;;;14.50;99.90;;;;;;5092606;28;19915;-90
2022/04/06 11:48:40;;;;;;;;;;;14.50;99.90;;;;;;5090958;28;20279;-91
2022/04/06 11:51:06;;;;;;;;;;;14.60;99.90;;;;;;5091082;28;20302;-89
2022/04/06 11:53:31;;;;;;;;;;;14.80;99.90;;;;;;5125228;27;20000;-89
2022/04/06 11:55:59;;;;;;;;;;;14.70;99.90;;;;;;5092252;28;19931;-90
2022/04/06 11:58:32;;;;;;;;;;;14.60;99.90;;;;;;5091916;28;19908;-89
2022/04/06 12:00:59;;;;;;;;;;;14.60;99.90;;;;;;5090586;28;19995;-90
2022/04/06 12:03:32;;;;;;;;;;;14.50;99.90;;;;;;5091998;28;20146;-89
2022/04/06 12:05:57;;;;;;;;;;;14.30;99.90;;;;;;5090680;28;19912;-90
2022/04/06 12:08:23;;;;;;;;;;;14.10;99.90;;;;;;5091808;28;19935;-89
2022/04/06 12:10:50;;;;;;;;;;;14.00;99.90;;;;;;5092063;28;20391;-90
2022/04/06 12:13:16;;;;;;;;;;;13.70;99.90;;;;;;5091981;28;19908;-90
2022/04/06 12:15:42;;;;;;;;;;;13.70;99.90;;;;;;5090457;28;19959;-89
2022/04/06 12:18:08;;;;;;;;;;;13.60;99.90;;;;;;5090469;28;19908;-90
2022/04/06 12:20:33;;;;;;;;;;;13.30;99.90;;;;;;5090509;28;20330;-90
2022/04/06 12:23:08;;;;;;;;;;;13.00;99.90;;;;;;5091699;28;20435;-90
2022/04/06 12:25:34;;;;;;;;;;;12.90;99.90;;;;;;5090211;28;19908;-90
2022/04/06 12:28:33;;;;;;;;;;;12.70;99.90;;;;;;5091899;28;19955;-90
2022/04/06 12:31:03;;;;;;;;;;;12.60;99.90;;;;;;5067788;28;20303;-90
2022/04/06 12:33:31;;;;;;;;;;;12.70;99.90;;;;;;5090390;28;19966;-89
2022/04/06 12:36:04;;;;;;;;;;;12.80;99.90;;;;;;5090266;28;19970;-89
2022/04/06 12:38:29;;;;;;;;;;;13.00;99.90;;;;;;5091626;28;19982;-90
2022/04/06 12:41:14;;;;;;;;;;;13.20;99.90;;;;;;5090174;28;19924;-90
2022/04/06 12:43:40;;;;;;;;;;;13.30;99.90;;;;;;5091542;28;19908;-90
2022/04/06 12:46:05;;;;;;;;;;;13.50;99.90;;;;;;5091241;28;19908;-90
2022/04/06 12:48:31;;;;;;;;;;;14.00;99.90;;;;;;5124065;27;19958;-91
2022/04/06 12:50:57;;;;;;;;;;;14.40;99.90;;;;;;5089987;28;19908;-91
2022/04/06 12:53:23;;;;;;;;;;;14.50;99.90;;;;;;5089970;28;19919;-89
2022/04/06 12:56:08;;;;;;;;;;;14.30;99.90;;;;;;5091456;28;19934;-90
2022/04/06 12:58:33;;;;;;;;;;;14.40;99.90;;;;;;5089769;28;20383;-90
2022/04/06 13:01:02;;;;;;;;;;;14.50;99.90;;;;;;5122911;27;20126;-90
2022/04/06 13:03:27;;;;;;;;;;;14.50;99.90;;;;;;5091303;28;19912;-90
2022/04/06 13:05:53;;;;;;;;;;;14.50;99.90;;;;;;5089805;28;19908;-90
2022/04/06 13:08:22;;;;;;;;;;;14.30;99.90;;;;;;5089689;28;19908;-91
2022/04/06 13:10:47;;;;;;;;;;;14.20;99.90;;;;;;5089641;28;19908;-90
2022/04/06 13:13:13;;;;;;;;;;;14.30;99.90;;;;;;5123935;28;20515;-90
2022/04/06 13:15:38;;;;;;;;;;;14.50;99.90;;;;;;5091118;28;19908;-89
2022/04/06 13:18:06;;;;;;;;;;;14.30;99.90;;;;;;5089972;28;19904;-91
2022/04/06 13:20:31;;;;;;;;;;;14.20;99.90;;;;;;5091359;28;19916;-88
2022/04/06 13:22:57;;;;;;;;;;;14.20;99.90;;;;;;5089642;28;20011;-90
2022/04/06 13:25:22;;;;;;;;;;;14.10;99.90;;;;;;5089655;28;19919;-90
2022/04/06 13:27:48;;;;;;;;;;;14.00;99.90;;;;;;5090844;28;20333;-90
2022/04/06 13:30:17;;;;;;;;;;;14.00;99.90;;;;;;5090651;28;19909;-90
2022/04/06 13:32:44;;;;;;;;;;;13.90;99.90;;;;;;5090776;28;19929;-89
2022/04/06 13:35:10;;;;;;;;;;;13.70;99.90;;;;;;5091387;28;19908;-89
2022/04/06 13:37:36;;;;;;;;;;;13.50;99.90;;;;;;5089647;28;20402;-90
2022/04/06 13:40:02;;;;;;;;;;;13.10;99.90;;;;;;5091317;28;19916;-89
2022/04/06 13:42:28;;;;;;;;;;;13.00;99.90;;;;;;5091002;28;19950;-90
2022/04/06 13:44:54;;;;;;;;;;;13.20;99.90;;;;;;5123418;28;20286;-90
2022/04/06 13:47:19;;;;;;;;;;;13.50;99.90;;;;;;5089445;28;20073;-91
2022/04/06 13:49:45;;;;;;;;;;;13.70;99.90;;;;;;5089206;28;19914;-90
2022/04/06 13:52:11;;;;;;;;;;;13.80;99.90;;;;;;5090863;28;19908;-90
2022/04/06 13:54:37;;;;;;;;;;;14.10;99.90;;;;;;5089472;28;20162;-90
2022/04/06 13:57:03;;;;;;;;;;;13.90;99.90;;;;;;5089481;28;19908;-90
2022/04/06 13:59:29;;;;;;;;;;;14.10;99.90;;;;;;5090551;28;19924;-90
2022/04/06 14:01:57;;;;;;;;;;;14.20;99.90;;;;;;5090605;28;19912;-90
2022/04/06 14:04:23;;;;;;;;;;;14.40;99.90;;;;;;5093155;28;19912;-90
2022/04/06 14:06:49;;;;;;;;;;;14.70;99.90;;;;;;5092959;28;20438;-90
2022/04/06 14:09:14;;;;;;;;;;;14.80;99.90;;;;;;5094179;28;19908;-89
2022/04/06 14:11:42;;;;;;;;;;;14.80;99.90;;;;;;5092741;28;20436;-89
2022/04/06 14:14:08;;;;;;;;;;;14.50;99.90;;;;;;5094461;28;19919;-90
2022/04/06 14:16:33;;;;;;;;;;;14.70;99.90;;;;;;5094475;28;19908;-90
2022/04/06 14:18:59;;;;;;;;;;;14.80;99.90;;;;;;5127116;27;20280;-90
2022/04/06 14:21:27;;;;;;;;;;;14.80;99.90;;;;;;5094347;28;19916;-90
2022/04/06 14:23:52;;;;;;;;;;;14.70;99.90;;;;;;5093999;28;19994;-89